SBOSBO NQY / EGHQ
Speedbird OnlineSpeedbird Online NQY / EGHQ

Newquay Cornwall Airport
09:34 13.9°C

Location Newquai, United Kingdom
Latitude: 50.44060134887695
Longitude: -4.995409965515137
Web Airport Website | Wikipedia
Altitude 119 Meter / 390 Feet
Distance 378 KM / 235 Miles
from London.
Time Zone UTC +1 hours (Europe/London)
Codes IATA: NQY
ICAO: EGHQ
Runways
RunwayLength (m)Surface
122745Asphalt
302745Asphalt
Radio
TypeDescriptionFrequency
APPAPP133.4
ATISATIS127.4
DIRDIRECTOR125.55
GNDGND121.95
OPSOPS131.8
RADARZONE ?127.925
TWRTWR134.375
Live ATC
METAR EGHQ 060750Z 19007KT 9999 SCT014 13/11 Q1029
TAF TAF EGHQ 060455Z 0606/0615 22010KT 9999 FEW030
Weather As Of 06 Oct 2022 09:34
Description Scattered clouds
Wind 15 km/h from South (190°)
Cloud Cover 40%
Precipitation Rain: none, Snow: none
Sunrise 07:27
Sunset 18:48
Rotations During the last 90 days there were
26 flights from LHR
26 flights to LHR


© 2017-2022 Speedbird Online